sensor_id;sensor_type;location;lat;lon;timestamp;pressure;altitude;pressure_sealevel;temperature;humidity
21203;BME280;10759;51.982;9.232;2023-09-19T00:00:39;99486.78;;;16.56;100.00
21203;BME280;10759;51.982;9.232;2023-09-19T00:03:10;99483.50;;;16.63;100.00
21203;BME280;10759;51.982;9.232;2023-09-19T00:05:40;99476.25;;;16.64;100.00
21203;BME280;10759;51.982;9.232;2023-09-19T00:08:11;99487.09;;;16.75;100.00
21203;BME280;10759;51.982;9.232;2023-09-19T00:10:46;99496.13;;;16.87;100.00
21203;BME280;10759;51.982;9.232;2023-09-19T00:13:15;99482.53;;;16.75;100.00
21203;BME280;10759;51.982;9.232;2023-09-19T00:15:46;99497.91;;;16.75;100.00
21203;BME280;10759;51.982;9.232;2023-09-19T00:18:19;99505.34;;;16.84;100.00
21203;BME280;10759;51.982;9.232;2023-09-19T00:20:49;99501.03;;;16.82;100.00
21203;BME280;10759;51.982;9.232;2023-09-19T00:23:19;99496.66;;;16.68;100.00
21203;BME280;10759;51.982;9.232;2023-09-19T00:25:48;99501.22;;;16.67;100.00
21203;BME280;10759;51.982;9.232;2023-09-19T00:28:18;99499.13;;;16.71;100.00
21203;BME280;10759;51.982;9.232;2023-09-19T00:30:46;99495.66;;;16.58;100.00
21203;BME280;10759;51.982;9.232;2023-09-19T00:33:18;99494.69;;;16.70;100.00
21203;BME280;10759;51.982;9.232;2023-09-19T00:35:47;99494.31;;;16.63;100.00
21203;BME280;10759;51.982;9.232;2023-09-19T00:38:16;99479.25;;;16.48;100.00
21203;BME280;10759;51.982;9.232;2023-09-19T00:40:49;99495.06;;;16.65;100.00
21203;BME280;10759;51.982;9.232;2023-09-19T00:43:41;99503.56;;;16.72;100.00
21203;BME280;10759;51.982;9.232;2023-09-19T00:46:10;99507.81;;;16.87;100.00
21203;BME280;10759;51.982;9.232;2023-09-19T00:48:41;99500.34;;;16.67;100.00
21203;BME280;10759;51.982;9.232;2023-09-19T00:51:11;99516.59;;;16.67;100.00
21203;BME280;10759;51.982;9.232;2023-09-19T00:53:48;99504.16;;;16.64;100.00
21203;BME280;10759;51.982;9.232;2023-09-19T00:56:16;99516.53;;;16.56;100.00
21203;BME280;10759;51.982;9.232;2023-09-19T00:58:46;99495.31;;;16.38;100.00
21203;BME280;10759;51.982;9.232;2023-09-19T01:01:15;99488.56;;;16.33;100.00
21203;BME280;10759;51.982;9.232;2023-09-19T01:03:46;99508.91;;;16.49;100.00
21203;BME280;10759;51.982;9.232;2023-09-19T01:06:14;99523.44;;;16.60;100.00
21203;BME280;10759;51.982;9.232;2023-09-19T01:08:44;99473.13;;;16.22;100.00
21203;BME280;10759;51.982;9.232;2023-09-19T01:11:20;99523.47;;;16.71;100.00
21203;BME280;10759;51.982;9.232;2023-09-19T01:13:58;99525.81;;;16.64;100.00
21203;BME280;10759;51.982;9.232;2023-09-19T01:16:36;99530.56;;;16.61;100.00
21203;BME280;10759;51.982;9.232;2023-09-19T01:23:20;99532.75;;;16.56;100.00
21203;BME280;10759;51.982;9.232;2023-09-19T01:26:17;99534.19;;;16.48;100.00
21203;BME280;10759;51.982;9.232;2023-09-19T01:28:53;99539.59;;;16.48;100.00
21203;BME280;10759;51.982;9.232;2023-09-19T01:32:21;99550.66;;;16.45;100.00
21203;BME280;10759;51.982;9.232;2023-09-19T01:34:54;99541.69;;;16.45;100.00
21203;BME280;10759;51.982;9.232;2023-09-19T01:37:31;99546.44;;;16.41;100.00
21203;BME280;10759;51.982;9.232;2023-09-19T01:43:25;99551.00;;;16.41;100.00
21203;BME280;10759;51.982;9.232;2023-09-19T01:45:59;99544.63;;;16.42;100.00
21203;BME280;10759;51.982;9.232;2023-09-19T01:48:38;99561.41;;;16.34;100.00
21203;BME280;10759;51.982;9.232;2023-09-19T01:51:10;99559.81;;;16.56;100.00
21203;BME280;10759;51.982;9.232;2023-09-19T01:53:43;99558.66;;;16.47;100.00
21203;BME280;10759;51.982;9.232;2023-09-19T01:56:23;99557.56;;;16.49;100.00
21203;BME280;10759;51.982;9.232;2023-09-19T01:58:56;99529.84;;;16.10;100.00
21203;BME280;10759;51.982;9.232;2023-09-19T02:01:54;99562.16;;;16.36;100.00
21203;BME280;10759;51.982;9.232;2023-09-19T02:04:27;99554.00;;;16.25;100.00
21203;BME280;10759;51.982;9.232;2023-09-19T02:06:56;99558.00;;;16.19;100.00
21203;BME280;10759;51.982;9.232;2023-09-19T02:13:10;99541.66;;;15.97;100.00
21203;BME280;10759;51.982;9.232;2023-09-19T02:15:39;99493.75;;;15.75;100.00
21203;BME280;10759;51.982;9.232;2023-09-19T02:18:07;99552.88;;;16.03;100.00
21203;BME280;10759;51.982;9.232;2023-09-19T02:20:37;99578.50;;;16.10;100.00
21203;BME280;10759;51.982;9.232;2023-09-19T02:23:09;99581.72;;;16.16;100.00
21203;BME280;10759;51.982;9.232;2023-09-19T02:25:37;99576.41;;;16.14;100.00
21203;BME280;10759;51.982;9.232;2023-09-19T02:28:07;99590.81;;;16.15;100.00
21203;BME280;10759;51.982;9.232;2023-09-19T02:31:01;99591.00;;;16.12;100.00
21203;BME280;10759;51.982;9.232;2023-09-19T02:33:32;99589.06;;;16.14;100.00
21203;BME280;10759;51.982;9.232;2023-09-19T02:36:07;99593.59;;;16.13;100.00
21203;BME280;10759;51.982;9.232;2023-09-19T02:38:36;99589.19;;;15.99;100.00
21203;BME280;10759;51.982;9.232;2023-09-19T02:41:04;99527.34;;;15.58;100.00
21203;BME280;10759;51.982;9.232;2023-09-19T02:43:33;99595.81;;;15.95;100.00
21203;BME280;10759;51.982;9.232;2023-09-19T02:46:06;99600.44;;;16.06;100.00
21203;BME280;10759;51.982;9.232;2023-09-19T02:48:35;99595.59;;;15.98;100.00
21203;BME280;10759;51.982;9.232;2023-09-19T02:51:04;99609.53;;;15.92;100.00
21203;BME280;10759;51.982;9.232;2023-09-19T02:53:34;99609.78;;;15.76;100.00
21203;BME280;10759;51.982;9.232;2023-09-19T02:56:04;99576.38;;;15.64;100.00
21203;BME280;10759;51.982;9.232;2023-09-19T02:58:32;99523.81;;;15.32;100.00
21203;BME280;10759;51.982;9.232;2023-09-19T03:03:57;99597.28;;;15.75;100.00
21203;BME280;10759;51.982;9.232;2023-09-19T03:06:26;99606.75;;;15.81;100.00
21203;BME280;10759;51.982;9.232;2023-09-19T03:08:59;99591.28;;;15.57;100.00
21203;BME280;10759;51.982;9.232;2023-09-19T03:11:54;99609.47;;;15.81;100.00
21203;BME280;10759;51.982;9.232;2023-09-19T03:14:23;99604.03;;;15.68;100.00
21203;BME280;10759;51.982;9.232;2023-09-19T03:16:53;99573.59;;;15.53;100.00
21203;BME280;10759;51.982;9.232;2023-09-19T03:23:10;99624.59;;;15.83;100.00
21203;BME280;10759;51.982;9.232;2023-09-19T03:25:42;99618.22;;;15.72;100.00
21203;BME280;10759;51.982;9.232;2023-09-19T03:28:10;99628.06;;;15.73;100.00
21203;BME280;10759;51.982;9.232;2023-09-19T03:30:39;99626.41;;;15.70;100.00
21203;BME280;10759;51.982;9.232;2023-09-19T03:33:09;99626.09;;;15.75;100.00
21203;BME280;10759;51.982;9.232;2023-09-19T03:35:41;99629.13;;;15.70;100.00
21203;BME280;10759;51.982;9.232;2023-09-19T03:38:11;99630.31;;;15.79;100.00
21203;BME280;10759;51.982;9.232;2023-09-19T03:40:40;99627.16;;;15.59;100.00
21203;BME280;10759;51.982;9.232;2023-09-19T03:43:10;99632.56;;;15.59;100.00
21203;BME280;10759;51.982;9.232;2023-09-19T03:45:38;99627.47;;;15.67;100.00
21203;BME280;10759;51.982;9.232;2023-09-19T03:48:08;99634.72;;;15.67;100.00
21203;BME280;10759;51.982;9.232;2023-09-19T03:50:36;99637.41;;;15.54;100.00
21203;BME280;10759;51.982;9.232;2023-09-19T03:53:28;99641.09;;;15.53;100.00
21203;BME280;10759;51.982;9.232;2023-09-19T03:55:57;99612.91;;;15.44;100.00
21203;BME280;10759;51.982;9.232;2023-09-19T03:58:31;99641.09;;;15.53;100.00
21203;BME280;10759;51.982;9.232;2023-09-19T04:01:01;99637.94;;;15.59;100.00
21203;BME280;10759;51.982;9.232;2023-09-19T04:03:31;99640.97;;;15.67;100.00
21203;BME280;10759;51.982;9.232;2023-09-19T04:06:13;99634.72;;;15.41;100.00
21203;BME280;10759;51.982;9.232;2023-09-19T04:08:41;99638.59;;;15.37;100.00
21203;BME280;10759;51.982;9.232;2023-09-19T04:11:11;99629.50;;;15.25;100.00
21203;BME280;10759;51.982;9.232;2023-09-19T04:13:41;99644.84;;;15.38;100.00
21203;BME280;10759;51.982;9.232;2023-09-19T04:16:10;99638.81;;;15.47;100.00
21203;BME280;10759;51.982;9.232;2023-09-19T04:18:38;99640.56;;;15.48;100.00
21203;BME280;10759;51.982;9.232;2023-09-19T04:21:08;99595.94;;;15.17;100.00
21203;BME280;10759;51.982;9.232;2023-09-19T04:23:39;99639.81;;;15.46;100.00
21203;BME280;10759;51.982;9.232;2023-09-19T04:26:08;99646.81;;;15.61;100.00
21203;BME280;10759;51.982;9.232;2023-09-19T04:28:36;99655.47;;;15.54;100.00
21203;BME280;10759;51.982;9.232;2023-09-19T04:31:06;99647.53;;;15.38;100.00
21203;BME280;10759;51.982;9.232;2023-09-19T04:33:37;99645.28;;;15.44;100.00
21203;BME280;10759;51.982;9.232;2023-09-19T04:36:06;99633.84;;;15.41;100.00
21203;BME280;10759;51.982;9.232;2023-09-19T04:38:54;99659.72;;;15.31;100.00
21203;BME280;10759;51.982;9.232;2023-09-19T04:41:23;99662.78;;;15.26;100.00
21203;BME280;10759;51.982;9.232;2023-09-19T04:43:51;99675.00;;;15.44;100.00
21203;BME280;10759;51.982;9.232;2023-09-19T04:46:21;99659.88;;;15.42;100.00
21203;BME280;10759;51.982;9.232;2023-09-19T04:48:49;99679.09;;;15.50;100.00
21203;BME280;10759;51.982;9.232;2023-09-19T04:51:17;99684.59;;;15.36;100.00
21203;BME280;10759;51.982;9.232;2023-09-19T04:53:48;99691.38;;;15.29;100.00
21203;BME280;10759;51.982;9.232;2023-09-19T04:56:16;99694.63;;;15.34;100.00
21203;BME280;10759;51.982;9.232;2023-09-19T04:58:46;99694.63;;;15.34;100.00
21203;BME280;10759;51.982;9.232;2023-09-19T05:01:18;99697.53;;;15.31;100.00
21203;BME280;10759;51.982;9.232;2023-09-19T05:03:50;99652.38;;;15.07;100.00
21203;BME280;10759;51.982;9.232;2023-09-19T05:06:23;99681.56;;;15.40;100.00
21203;BME280;10759;51.982;9.232;2023-09-19T05:08:53;99702.06;;;15.30;100.00
21203;BME280;10759;51.982;9.232;2023-09-19T05:11:21;99705.28;;;15.22;100.00
21203;BME280;10759;51.982;9.232;2023-09-19T05:14:40;99688.84;;;15.13;100.00
21203;BME280;10759;51.982;9.232;2023-09-19T05:17:08;99673.88;;;15.21;100.00
21203;BME280;10759;51.982;9.232;2023-09-19T05:19:41;99714.06;;;15.26;100.00
21203;BME280;10759;51.982;9.232;2023-09-19T05:23:24;99736.56;;;15.12;100.00
21203;BME280;10759;51.982;9.232;2023-09-19T05:25:54;99737.38;;;15.27;100.00
21203;BME280;10759;51.982;9.232;2023-09-19T05:28:24;99592.78;;;14.16;100.00
21203;BME280;10759;51.982;9.232;2023-09-19T05:30:52;99756.47;;;15.24;100.00
21203;BME280;10759;51.982;9.232;2023-09-19T05:33:21;99747.25;;;15.14;100.00
21203;BME280;10759;51.982;9.232;2023-09-19T05:35:52;99742.13;;;15.23;100.00
21203;BME280;10759;51.982;9.232;2023-09-19T05:38:20;99752.31;;;15.18;100.00
21203;BME280;10759;51.982;9.232;2023-09-19T05:40:49;99722.78;;;14.90;100.00
21203;BME280;10759;51.982;9.232;2023-09-19T05:43:17;99750.22;;;14.96;100.00
21203;BME280;10759;51.982;9.232;2023-09-19T05:45:46;99749.16;;;14.99;100.00
21203;BME280;10759;51.982;9.232;2023-09-19T05:48:15;99738.19;;;14.88;100.00
21203;BME280;10759;51.982;9.232;2023-09-19T05:51:16;99764.56;;;14.97;100.00
21203;BME280;10759;51.982;9.232;2023-09-19T05:53:53;99766.75;;;15.05;100.00
21203;BME280;10759;51.982;9.232;2023-09-19T05:56:22;99773.56;;;15.10;100.00
21203;BME280;10759;51.982;9.232;2023-09-19T05:58:50;99778.66;;;15.15;100.00
21203;BME280;10759;51.982;9.232;2023-09-19T06:01:22;99783.88;;;15.31;100.00
21203;BME280;10759;51.982;9.232;2023-09-19T06:03:51;99784.97;;;15.28;100.00
21203;BME280;10759;51.982;9.232;2023-09-19T06:06:22;99781.31;;;15.29;100.00
21203;BME280;10759;51.982;9.232;2023-09-19T06:08:50;99791.53;;;15.51;100.00
21203;BME280;10759;51.982;9.232;2023-09-19T06:11:22;99788.56;;;15.68;100.00
21203;BME280;10759;51.982;9.232;2023-09-19T06:13:53;99797.81;;;15.64;100.00
21203;BME280;10759;51.982;9.232;2023-09-19T06:16:23;99804.34;;;15.75;100.00
21203;BME280;10759;51.982;9.232;2023-09-19T06:18:52;99798.88;;;15.89;99.27
21203;BME280;10759;51.982;9.232;2023-09-19T06:21:26;99810.56;;;16.02;98.31
21203;BME280;10759;51.982;9.232;2023-09-19T06:23:59;99812.06;;;15.94;99.60
21203;BME280;10759;51.982;9.232;2023-09-19T06:26:27;99764.94;;;15.45;98.78
21203;BME280;10759;51.982;9.232;2023-09-19T06:29:01;99803.66;;;15.98;96.88
21203;BME280;10759;51.982;9.232;2023-09-19T06:32:27;99802.25;;;16.05;95.62
21203;BME280;10759;51.982;9.232;2023-09-19T06:34:56;99764.75;;;15.88;98.26
21203;BME280;10759;51.982;9.232;2023-09-19T06:37:28;99797.25;;;15.99;98.48
21203;BME280;10759;51.982;9.232;2023-09-19T06:39:56;99765.91;;;15.84;99.08
21203;BME280;10759;51.982;9.232;2023-09-19T06:43:15;99796.94;;;15.78;97.40
21203;BME280;10759;51.982;9.232;2023-09-19T06:45:51;99792.75;;;16.13;98.83
21203;BME280;10759;51.982;9.232;2023-09-19T06:48:24;99795.22;;;16.16;95.37
21203;BME280;10759;51.982;9.232;2023-09-19T06:50:57;99788.09;;;16.15;96.13
21203;BME280;10759;51.982;9.232;2023-09-19T06:53:31;99787.78;;;16.32;95.13
21203;BME280;10759;51.982;9.232;2023-09-19T06:56:00;99781.69;;;16.41;95.37
21203;BME280;10759;51.982;9.232;2023-09-19T06:58:29;99788.50;;;16.47;93.25
21203;BME280;10759;51.982;9.232;2023-09-19T07:01:01;99803.41;;;16.65;93.58
21203;BME280;10759;51.982;9.232;2023-09-19T07:03:33;99804.91;;;16.82;89.98
21203;BME280;10759;51.982;9.232;2023-09-19T07:06:13;99785.13;;;16.69;89.57
21203;BME280;10759;51.982;9.232;2023-09-19T07:08:46;99793.53;;;16.77;90.19
21203;BME280;10759;51.982;9.232;2023-09-19T07:11:15;99773.09;;;16.73;89.86
21203;BME280;10759;51.982;9.232;2023-09-19T07:13:44;99801.22;;;16.83;88.30
21203;BME280;10759;51.982;9.232;2023-09-19T07:16:12;99779.09;;;16.52;87.68
21203;BME280;10759;51.982;9.232;2023-09-19T07:18:54;99799.00;;;16.51;89.54
21203;BME280;10759;51.982;9.232;2023-09-19T07:21:24;99802.66;;;16.50;90.56
21203;BME280;10759;51.982;9.232;2023-09-19T07:23:57;99800.06;;;16.36;90.52
21203;BME280;10759;51.982;9.232;2023-09-19T07:26:27;99808.59;;;16.56;88.68
21203;BME280;10759;51.982;9.232;2023-09-19T07:28:56;99809.81;;;16.26;91.10
21203;BME280;10759;51.982;9.232;2023-09-19T07:31:49;99817.84;;;16.15;92.66
21203;BME280;10759;51.982;9.232;2023-09-19T07:34:19;99829.38;;;16.17;91.95
21203;BME280;10759;51.982;9.232;2023-09-19T07:36:48;99820.41;;;16.29;90.80
21203;BME280;10759;51.982;9.232;2023-09-19T07:39:18;99825.81;;;16.29;90.81
21203;BME280;10759;51.982;9.232;2023-09-19T07:43:01;99828.75;;;16.26;90.32
21203;BME280;10759;51.982;9.232;2023-09-19T07:45:32;99836.63;;;16.16;89.91
21203;BME280;10759;51.982;9.232;2023-09-19T07:48:00;99837.94;;;16.10;90.70
21203;BME280;10759;51.982;9.232;2023-09-19T07:50:55;99834.69;;;16.31;93.88
21203;BME280;10759;51.982;9.232;2023-09-19T07:53:23;99832.44;;;16.25;94.87
21203;BME280;10759;51.982;9.232;2023-09-19T07:56:01;99841.84;;;16.45;94.04
21203;BME280;10759;51.982;9.232;2023-09-19T07:58:30;99825.81;;;16.55;90.71
21203;BME280;10759;51.982;9.232;2023-09-19T08:01:04;99843.88;;;16.67;91.89
21203;BME280;10759;51.982;9.232;2023-09-19T08:03:33;99850.69;;;16.85;87.57
21203;BME280;10759;51.982;9.232;2023-09-19T08:06:07;99835.31;;;16.86;86.55
21203;BME280;10759;51.982;9.232;2023-09-19T08:08:36;99823.59;;;16.98;85.42
21203;BME280;10759;51.982;9.232;2023-09-19T08:11:07;99836.13;;;17.12;88.97
21203;BME280;10759;51.982;9.232;2023-09-19T08:13:39;99846.50;;;17.18;87.34
21203;BME280;10759;51.982;9.232;2023-09-19T08:16:10;99835.31;;;16.99;85.99
21203;BME280;10759;51.982;9.232;2023-09-19T08:18:39;99828.66;;;17.03;87.47
21203;BME280;10759;51.982;9.232;2023-09-19T08:21:08;99794.38;;;17.03;85.72
21203;BME280;10759;51.982;9.232;2023-09-19T08:23:38;99832.59;;;17.23;86.34
21203;BME280;10759;51.982;9.232;2023-09-19T08:26:09;99833.50;;;17.23;86.33
21203;BME280;10759;51.982;9.232;2023-09-19T08:28:40;99838.16;;;17.45;84.41
21203;BME280;10759;51.982;9.232;2023-09-19T08:31:08;99839.00;;;17.22;87.99
21203;BME280;10759;51.982;9.232;2023-09-19T08:33:37;99819.63;;;17.15;89.67
21203;BME280;10759;51.982;9.232;2023-09-19T08:36:06;99833.44;;;17.36;86.61
21203;BME280;10759;51.982;9.232;2023-09-19T08:38:37;99825.19;;;17.37;87.16
21203;BME280;10759;51.982;9.232;2023-09-19T08:41:06;99791.34;;;16.95;85.94
21203;BME280;10759;51.982;9.232;2023-09-19T08:43:36;99838.56;;;17.28;85.47
21203;BME280;10759;51.982;9.232;2023-09-19T08:46:10;99836.16;;;17.36;90.41
21203;BME280;10759;51.982;9.232;2023-09-19T08:48:45;99838.50;;;17.41;88.24
21203;BME280;10759;51.982;9.232;2023-09-19T08:51:18;99837.84;;;17.37;85.22
21203;BME280;10759;51.982;9.232;2023-09-19T08:53:51;99749.13;;;16.92;88.87
21203;BME280;10759;51.982;9.232;2023-09-19T08:56:24;99854.88;;;17.63;87.99
21203;BME280;10759;51.982;9.232;2023-09-19T08:58:58;99807.88;;;17.40;87.53
21203;BME280;10759;51.982;9.232;2023-09-19T09:02:18;99862.78;;;17.90;88.34
21203;BME280;10759;51.982;9.232;2023-09-19T09:04:49;99861.03;;;17.89;85.72
21203;BME280;10759;51.982;9.232;2023-09-19T09:07:19;99856.00;;;17.72;86.59
21203;BME280;10759;51.982;9.232;2023-09-19T09:13:12;99854.41;;;17.69;87.90
21203;BME280;10759;51.982;9.232;2023-09-19T09:15:44;99777.34;;;17.25;89.19
21203;BME280;10759;51.982;9.232;2023-09-19T09:18:12;99859.97;;;17.79;85.92
21203;BME280;10759;51.982;9.232;2023-09-19T09:20:47;99851.94;;;17.66;86.76
21203;BME280;10759;51.982;9.232;2023-09-19T09:23:15;99869.88;;;17.80;88.39
21203;BME280;10759;51.982;9.232;2023-09-19T09:25:48;99861.31;;;17.73;87.35
21203;BME280;10759;51.982;9.232;2023-09-19T09:28:22;99856.66;;;17.75;88.42
21203;BME280;10759;51.982;9.232;2023-09-19T09:30:55;99860.31;;;17.87;85.76
21203;BME280;10759;51.982;9.232;2023-09-19T09:33:26;99839.09;;;17.81;87.97
21203;BME280;10759;51.982;9.232;2023-09-19T09:35:58;99866.50;;;18.00;86.77
21203;BME280;10759;51.982;9.232;2023-09-19T09:38:30;99869.63;;;18.18;88.95
21203;BME280;10759;51.982;9.232;2023-09-19T09:41:11;99874.03;;;18.08;85.30
21203;BME280;10759;51.982;9.232;2023-09-19T09:44:28;99861.03;;;18.24;85.11
21203;BME280;10759;51.982;9.232;2023-09-19T09:47:02;99865.72;;;18.22;85.45
21203;BME280;10759;51.982;9.232;2023-09-19T09:53:35;99870.59;;;18.06;84.78
21203;BME280;10759;51.982;9.232;2023-09-19T09:56:06;99872.56;;;18.04;86.94
21203;BME280;10759;51.982;9.232;2023-09-19T09:58:35;99874.84;;;18.33;85.76
21203;BME280;10759;51.982;9.232;2023-09-19T10:01:04;99877.22;;;18.37;82.81
21203;BME280;10759;51.982;9.232;2023-09-19T10:03:39;99875.31;;;18.15;83.26
21203;BME280;10759;51.982;9.232;2023-09-19T10:06:12;99844.31;;;17.95;86.33
21203;BME280;10759;51.982;9.232;2023-09-19T10:08:58;99867.66;;;18.09;83.90
21203;BME280;10759;51.982;9.232;2023-09-19T10:12:03;99871.03;;;18.35;84.36
21203;BME280;10759;51.982;9.232;2023-09-19T10:18:36;99867.97;;;18.40;79.96
21203;BME280;10759;51.982;9.232;2023-09-19T10:21:08;99860.56;;;18.53;83.30
21203;BME280;10759;51.982;9.232;2023-09-19T10:23:38;99855.53;;;18.49;81.46
21203;BME280;10759;51.982;9.232;2023-09-19T10:26:10;99859.34;;;18.46;81.14
21203;BME280;10759;51.982;9.232;2023-09-19T10:28:41;99865.25;;;18.40;83.17
21203;BME280;10759;51.982;9.232;2023-09-19T10:31:11;99873.59;;;18.26;82.63
21203;BME280;10759;51.982;9.232;2023-09-19T10:33:43;99863.34;;;18.18;81.99
21203;BME280;10759;51.982;9.232;2023-09-19T10:36:13;99868.41;;;18.22;80.99
21203;BME280;10759;51.982;9.232;2023-09-19T10:38:43;99837.97;;;18.19;81.92
21203;BME280;10759;51.982;9.232;2023-09-19T10:41:15;99863.66;;;18.37;82.16
21203;BME280;10759;51.982;9.232;2023-09-19T10:43:45;99864.03;;;18.44;81.53
21203;BME280;10759;51.982;9.232;2023-09-19T10:46:16;99791.91;;;17.84;81.45
21203;BME280;10759;51.982;9.232;2023-09-19T10:48:44;99872.84;;;18.23;80.72
21203;BME280;10759;51.982;9.232;2023-09-19T10:51:21;99869.81;;;18.51;79.95
21203;BME280;10759;51.982;9.232;2023-09-19T10:53:56;99870.19;;;18.57;81.75
21203;BME280;10759;51.982;9.232;2023-09-19T10:56:31;99874.28;;;18.74;81.50
21203;BME280;10759;51.982;9.232;2023-09-19T11:03:21;99865.91;;;19.00;77.96
21203;BME280;10759;51.982;9.232;2023-09-19T11:06:10;99870.16;;;18.93;80.07
21203;BME280;10759;51.982;9.232;2023-09-19T11:08:56;99870.25;;;18.91;77.92
21203;BME280;10759;51.982;9.232;2023-09-19T11:11:45;99861.13;;;18.81;79.19
21203;BME280;10759;51.982;9.232;2023-09-19T11:14:30;99874.31;;;18.97;76.83
21203;BME280;10759;51.982;9.232;2023-09-19T11:17:30;99879.38;;;19.01;78.73
21203;BME280;10759;51.982;9.232;2023-09-19T11:20:19;99871.88;;;18.94;75.67
21203;BME280;10759;51.982;9.232;2023-09-19T11:23:18;99865.19;;;18.86;76.11
21203;BME280;10759;51.982;9.232;2023-09-19T11:25:51;99854.22;;;18.77;77.27
21203;BME280;10759;51.982;9.232;2023-09-19T11:28:36;99857.28;;;18.95;77.30
21203;BME280;10759;51.982;9.232;2023-09-19T11:34:46;99862.13;;;18.91;76.94
21203;BME280;10759;51.982;9.232;2023-09-19T11:40:39;99854.81;;;19.14;76.07
21203;BME280;10759;51.982;9.232;2023-09-19T11:43:30;99849.88;;;19.08;77.27
21203;BME280;10759;51.982;9.232;2023-09-19T11:46:05;99856.50;;;19.26;76.69
21203;BME280;10759;51.982;9.232;2023-09-19T11:48:34;99848.63;;;19.35;76.65
21203;BME280;10759;51.982;9.232;2023-09-19T11:51:12;99845.06;;;19.23;76.23
21203;BME280;10759;51.982;9.232;2023-09-19T11:53:49;99844.31;;;19.09;75.48
21203;BME280;10759;51.982;9.232;2023-09-19T11:56:18;99844.78;;;19.26;72.61
21203;BME280;10759;51.982;9.232;2023-09-19T11:58:51;99845.38;;;19.29;71.21
21203;BME280;10759;51.982;9.232;2023-09-19T12:01:24;99848.47;;;19.36;75.45
21203;BME280;10759;51.982;9.232;2023-09-19T12:03:54;99831.44;;;19.34;74.78
21203;BME280;10759;51.982;9.232;2023-09-19T12:06:26;99841.50;;;19.55;72.53
21203;BME280;10759;51.982;9.232;2023-09-19T12:08:56;99851.25;;;19.68;69.47
21203;BME280;10759;51.982;9.232;2023-09-19T12:11:52;99841.66;;;19.42;69.67
21203;BME280;10759;51.982;9.232;2023-09-19T12:14:27;99839.56;;;19.45;70.26
21203;BME280;10759;51.982;9.232;2023-09-19T12:16:58;99842.00;;;19.60;71.37
21203;BME280;10759;51.982;9.232;2023-09-19T12:23:13;99846.56;;;19.59;69.81
21203;BME280;10759;51.982;9.232;2023-09-19T12:25:43;99848.44;;;19.47;70.20
21203;BME280;10759;51.982;9.232;2023-09-19T12:28:14;99851.13;;;19.59;72.69
21203;BME280;10759;51.982;9.232;2023-09-19T12:30:46;99752.53;;;19.36;71.07
21203;BME280;10759;51.982;9.232;2023-09-19T12:34:03;99841.34;;;20.00;69.61
21203;BME280;10759;51.982;9.232;2023-09-19T12:36:32;99856.03;;;19.76;68.89
21203;BME280;10759;51.982;9.232;2023-09-19T12:39:01;99855.56;;;19.60;67.89
21203;BME280;10759;51.982;9.232;2023-09-19T12:42:42;99852.25;;;19.67;69.88
21203;BME280;10759;51.982;9.232;2023-09-19T12:45:11;99842.00;;;19.60;67.68
21203;BME280;10759;51.982;9.232;2023-09-19T12:53:44;99833.38;;;19.55;72.54
21203;BME280;10759;51.982;9.232;2023-09-19T12:56:17;99825.22;;;19.43;69.87
21203;BME280;10759;51.982;9.232;2023-09-19T12:58:50;99826.34;;;19.52;71.40
21203;BME280;10759;51.982;9.232;2023-09-19T13:01:21;99819.25;;;19.61;70.84
21203;BME280;10759;51.982;9.232;2023-09-19T13:04:12;99763.50;;;19.45;71.02
21203;BME280;10759;51.982;9.232;2023-09-19T13:07:10;99818.50;;;19.91;70.62
21203;BME280;10759;51.982;9.232;2023-09-19T13:10:04;99812.88;;;19.83;66.94
21203;BME280;10759;51.982;9.232;2023-09-19T13:13:24;99807.50;;;19.92;69.13
21203;BME280;10759;51.982;9.232;2023-09-19T13:15:55;99815.25;;;20.18;68.20
21203;BME280;10759;51.982;9.232;2023-09-19T13:18:24;99812.63;;;20.07;71.98
21203;BME280;10759;51.982;9.232;2023-09-19T13:21:06;99801.53;;;20.20;68.20
21203;BME280;10759;51.982;9.232;2023-09-19T13:24:26;99802.28;;;20.01;70.24
21203;BME280;10759;51.982;9.232;2023-09-19T13:26:57;99798.03;;;20.08;69.03
21203;BME280;10759;51.982;9.232;2023-09-19T13:29:28;99804.00;;;20.02;66.98
21203;BME280;10759;51.982;9.232;2023-09-19T13:33:10;99791.41;;;20.01;71.18
21203;BME280;10759;51.982;9.232;2023-09-19T13:36:05;99793.19;;;19.90;68.78
21203;BME280;10759;51.982;9.232;2023-09-19T13:38:34;99795.00;;;20.01;67.57
21203;BME280;10759;51.982;9.232;2023-09-19T13:41:02;99793.34;;;19.89;70.96
21203;BME280;10759;51.982;9.232;2023-09-19T13:43:32;99789.81;;;19.77;68.04
21203;BME280;10759;51.982;9.232;2023-09-19T13:46:01;99789.28;;;19.83;73.08
21203;BME280;10759;51.982;9.232;2023-09-19T13:48:29;99741.69;;;19.36;68.72
21203;BME280;10759;51.982;9.232;2023-09-19T13:50:58;99795.91;;;19.58;69.00
21203;BME280;10759;51.982;9.232;2023-09-19T13:53:52;99787.56;;;19.82;69.78
21203;BME280;10759;51.982;9.232;2023-09-19T13:56:22;99780.50;;;20.01;68.03
21203;BME280;10759;51.982;9.232;2023-09-19T13:58:53;99780.28;;;20.04;66.76
21203;BME280;10759;51.982;9.232;2023-09-19T14:01:21;99784.72;;;20.05;66.89
21203;BME280;10759;51.982;9.232;2023-09-19T14:03:49;99779.31;;;19.93;70.22
21203;BME280;10759;51.982;9.232;2023-09-19T14:06:18;99756.47;;;19.96;70.09
21203;BME280;10759;51.982;9.232;2023-09-19T14:08:46;99782.63;;;20.18;70.27
21203;BME280;10759;51.982;9.232;2023-09-19T14:11:17;99760.22;;;20.05;69.58
21203;BME280;10759;51.982;9.232;2023-09-19T14:13:45;99772.25;;;20.23;69.90
21203;BME280;10759;51.982;9.232;2023-09-19T14:16:17;99776.09;;;20.00;70.01
21203;BME280;10759;51.982;9.232;2023-09-19T14:18:49;99736.47;;;19.65;70.57
21203;BME280;10759;51.982;9.232;2023-09-19T14:21:17;99787.25;;;19.97;72.13
21203;BME280;10759;51.982;9.232;2023-09-19T14:23:46;99743.63;;;19.66;68.77
21203;BME280;10759;51.982;9.232;2023-09-19T14:26:16;99762.34;;;19.80;68.69